Time;durP1;ratioP1;P1;durP2;ratioP2;P2;SDS_P1;SDS_P2;PMS_P1;PMS_P2;Temp;Humidity;BMP_temperature;BMP_pressure;BME280_temperature;BME280_humidity;BME280_pressure;Samples;Min_cycle;Max_cycle;Signal;HPM_P1;HPM_P2
2023/09/02 00:01:12;;;;;;;27.40;14.47;;;;;;;17.58;89.21;99969.06;5093119;28;20044;-81
2023/09/02 00:03:38;;;;;;;27.05;13.93;;;;;;;17.59;89.12;99975.41;5091531;28;20298;-81
2023/09/02 00:06:03;;;;;;;23.00;12.95;;;;;;;17.58;89.43;99966.31;5095650;28;20089;-81
2023/09/02 00:08:28;;;;;;;25.67;13.00;;;;;;;17.59;89.03;99970.69;5091052;28;20046;-80
2023/09/02 00:10:54;;;;;;;23.77;12.00;;;;;;;17.59;88.83;99970.69;5092208;28;20024;-80
2023/09/02 00:13:19;;;;;;;22.63;11.80;;;;;;;17.60;88.88;99974.28;5094497;28;20059;-81
2023/09/02 00:15:44;;;;;;;23.13;12.23;;;;;;;17.58;88.87;99960.81;5089385;28;20259;-82
2023/09/02 00:18:09;;;;;;;23.60;13.32;;;;;;;17.59;89.07;99964.38;5085833;28;20288;-80
2023/09/02 00:20:35;;;;;;;18.92;11.10;;;;;;;17.59;89.08;99962.41;5089679;28;20048;-81
2023/09/02 00:23:00;;;;;;;21.95;11.80;;;;;;;17.56;89.23;99960.28;5088686;28;20024;-74
2023/09/02 00:25:26;;;;;;;22.90;12.68;;;;;;;17.58;89.32;99958.03;5082981;28;20035;-73
2023/09/02 00:27:52;;;;;;;23.02;11.93;;;;;;;17.59;89.31;99962.41;5083934;28;20107;-74
2023/09/02 00:30:17;;;;;;;22.58;12.88;;;;;;;17.60;89.47;99966.81;5087342;28;20572;-75
2023/09/02 00:32:43;;;;;;;25.95;11.82;;;;;;;17.59;89.32;99965.19;5089863;28;20035;-74
2023/09/02 00:35:10;;;;;;;28.67;11.90;;;;;;;17.62;89.19;99961.81;5092123;28;20468;-80
2023/09/02 00:37:35;;;;;;;24.70;12.25;;;;;;;17.65;89.35;99965.91;5093062;28;20283;-80
2023/09/02 00:40:01;;;;;;;22.02;11.25;;;;;;;17.62;89.47;99961.81;5093320;28;20052;-82
2023/09/02 00:42:29;;;;;;;21.27;12.23;;;;;;;17.66;89.06;99958.44;5097666;28;20028;-80
2023/09/02 00:44:54;;;;;;;19.10;11.93;;;;;;;17.70;88.93;99962.22;5091209;28;20028;-82
2023/09/02 00:47:20;;;;;;;19.48;11.93;;;;;;;17.73;88.88;99958.84;5094403;28;20708;-81
2023/09/02 00:49:45;;;;;;;24.00;11.88;;;;;;;17.75;88.64;99959.34;5096512;28;20052;-81
2023/09/02 00:52:10;;;;;;;19.40;11.30;;;;;;;17.77;88.31;99961.81;5094997;28;20073;-81
2023/09/02 00:54:36;;;;;;;21.42;10.77;;;;;;;17.79;88.37;99959.56;5095984;28;20672;-82
2023/09/02 00:57:01;;;;;;;17.88;10.75;;;;;;;17.77;88.41;99962.63;5096616;28;20095;-81
2023/09/02 00:59:27;;;;;;;17.85;10.50;;;;;;;17.73;88.71;99961.59;5101854;28;20428;-82
2023/09/02 01:01:55;;;;;;;18.40;10.47;;;;;;;17.76;88.73;99960.97;5096278;28;20727;-82
2023/09/02 01:04:21;;;;;;;21.55;11.05;;;;;;;17.77;88.40;99962.63;5095606;28;20253;-81
2023/09/02 01:06:46;;;;;;;19.02;10.48;;;;;;;17.80;88.33;99972.19;5095425;28;20040;-81
2023/09/02 01:09:13;;;;;;;18.92;11.52;;;;;;;17.83;87.92;99975.19;5098148;28;20496;-81
2023/09/02 01:11:38;;;;;;;17.88;10.23;;;;;;;17.80;88.13;99978.53;5095500;28;20789;-82
2023/09/02 01:14:04;;;;;;;19.52;11.20;;;;;;;17.79;87.95;99982.44;5095563;28;20028;-81
2023/09/02 01:16:31;;;;;;;21.27;11.00;;;;;;;17.81;88.01;99977.44;5095337;28;20039;-81
2023/09/02 01:18:57;;;;;;;23.08;11.65;;;;;;;17.81;87.98;99982.94;5094676;28;20020;-82
2023/09/02 01:21:44;;;;;;;22.10;11.90;;;;;;;17.83;87.87;99983.44;5094366;28;20032;-81
2023/09/02 01:24:45;;;;;;;18.88;10.82;;;;;;;17.82;87.72;99981.81;5095244;28;20032;-81
2023/09/02 01:27:22;;;;;;;23.70;11.32;;;;;;;17.82;87.85;99968.00;5080416;28;20039;-82
2023/09/02 01:29:55;;;;;;;23.92;12.40;;;;;;;17.80;88.04;99972.19;5095102;28;20039;-81
2023/09/02 01:32:22;;;;;;;21.35;11.82;;;;;;;17.80;88.32;99977.72;5093176;28;20029;-81
2023/09/02 01:34:48;;;;;;;27.17;13.30;;;;;;;17.77;88.28;99979.16;5092474;28;20066;-73
2023/09/02 01:37:17;;;;;;;22.20;11.40;;;;;;;17.76;88.14;99983.03;5092525;28;20031;-74
2023/09/02 01:39:45;;;;;;;21.75;12.68;;;;;;;17.79;88.19;99992.63;5090081;28;20024;-74
2023/09/02 01:42:11;;;;;;;22.58;10.95;;;;;;;17.76;87.91;99993.25;5091929;28;20373;-74
2023/09/02 01:44:39;;;;;;;20.92;10.85;;;;;;;17.77;88.05;99986.63;5094893;28;20114;-81
2023/09/02 01:47:05;;;;;;;19.75;10.55;;;;;;;17.77;88.38;99990.19;5094887;28;20028;-81
2023/09/02 01:49:30;;;;;;;20.60;10.68;;;;;;;17.79;87.95;99996.22;5094890;28;20081;-82
2023/09/02 01:51:56;;;;;;;20.48;11.10;;;;;;;17.81;88.22;99985.69;5095075;28;20613;-82
2023/09/02 01:54:22;;;;;;;18.83;10.75;;;;;;;17.83;87.94;99983.44;5094640;28;20032;-82
2023/09/02 01:56:48;;;;;;;22.48;11.15;;;;;;;17.83;88.05;99990.91;5094817;28;20031;-81
2023/09/02 01:59:13;;;;;;;21.58;10.43;;;;;;;17.83;88.16;99986.22;5093999;28;20169;-82
2023/09/02 02:01:38;;;;;;;21.37;11.63;;;;;;;17.85;87.99;100000.50;5095175;28;20699;-81
2023/09/02 02:04:42;;;;;;;23.52;11.98;;;;;;;17.84;87.14;100001.63;5088246;28;20257;-81
2023/09/02 02:07:13;;;;;;;21.50;11.68;;;;;;;17.80;88.23;100000.59;5050719;28;20056;-81
2023/09/02 02:09:42;;;;;;;21.00;11.45;;;;;;;17.82;88.19;99992.84;5087709;28;20043;-81
2023/09/02 02:12:08;;;;;;;27.80;13.25;;;;;;;17.78;88.10;99999.25;5093950;28;20024;-81
2023/09/02 02:14:34;;;;;;;20.95;10.52;;;;;;;17.78;88.01;99994.56;5093628;28;20032;-81
2023/09/02 02:17:01;;;;;;;21.83;11.05;;;;;;;17.73;88.30;100000.22;5093759;28;20066;-81
2023/09/02 02:19:26;;;;;;;24.13;12.38;;;;;;;17.74;88.17;100001.81;5093714;28;20036;-80
2023/09/02 02:21:51;;;;;;;25.52;12.93;;;;;;;17.69;87.93;100001.94;5093462;28;20024;-81
2023/09/02 02:24:17;;;;;;;24.03;11.97;;;;;;;17.66;88.39;100005.28;5093429;28;20792;-81
2023/09/02 02:26:42;;;;;;;25.27;12.32;;;;;;;17.60;88.17;100004.59;5093883;28;20263;-81
2023/09/02 02:29:07;;;;;;;20.80;11.40;;;;;;;17.55;88.38;100011.03;5093682;28;20028;-81
2023/09/02 02:31:34;;;;;;;20.42;11.43;;;;;;;17.58;88.70;99999.38;5093109;28;20322;-81
2023/09/02 02:33:59;;;;;;;23.05;11.65;;;;;;;17.59;88.42;100005.72;5088729;28;20040;-81
2023/09/02 02:36:25;;;;;;;24.02;12.63;;;;;;;17.58;88.46;100004.91;5084893;28;20047;-80
2023/09/02 02:38:50;;;;;;;21.13;10.10;;;;;;;17.57;88.59;99997.78;5090148;28;20600;-81
2023/09/02 02:41:15;;;;;;;26.63;12.50;;;;;;;17.62;88.86;99997.66;5091874;28;20248;-81
2023/09/02 02:43:40;;;;;;;22.63;10.87;;;;;;;17.64;88.74;99996.50;5094692;28;20035;-81
2023/09/02 02:46:06;;;;;;;20.33;10.53;;;;;;;17.67;88.77;99996.75;5093972;28;20268;-81
2023/09/02 02:48:32;;;;;;;23.42;12.50;;;;;;;17.69;88.67;100001.94;5086483;28;20252;-80
2023/09/02 02:50:58;;;;;;;21.52;10.88;;;;;;;17.70;88.59;99995.28;5089656;28;20085;-81
2023/09/02 02:53:23;;;;;;;21.60;10.88;;;;;;;17.75;88.49;100000.72;5092121;28;20020;-81
2023/09/02 02:55:49;;;;;;;19.15;10.18;;;;;;;17.74;88.45;99991.63;5093385;28;20024;-82
2023/09/02 02:58:18;;;;;;;19.88;11.13;;;;;;;17.77;88.63;99998.47;5094212;28;20023;-82
2023/09/02 03:00:44;;;;;;;17.15;8.52;;;;;;;17.75;88.94;100003.47;5090336;28;20097;-82
2023/09/02 03:03:10;;;;;;;15.35;9.35;;;;;;;17.72;88.84;100004.06;5093695;28;21256;-81
2023/09/02 03:05:37;;;;;;;31.25;9.05;;;;;;;17.80;88.63;100005.28;5094322;28;20036;-81
2023/09/02 03:08:02;;;;;;;18.95;10.15;;;;;;;17.80;88.53;99997.84;5094044;28;20034;-82
2023/09/02 03:10:27;;;;;;;15.93;9.70;;;;;;;17.80;88.61;100000.59;5093010;28;20641;-81
2023/09/02 03:12:53;;;;;;;17.60;9.37;;;;;;;17.82;88.54;99997.53;5093671;28;20031;-81
2023/09/02 03:15:18;;;;;;;18.93;9.83;;;;;;;17.79;88.78;100004.50;5093251;28;20267;-81
2023/09/02 03:17:43;;;;;;;19.67;9.97;;;;;;;17.81;88.93;100006.94;5093858;28;20257;-82
2023/09/02 03:20:09;;;;;;;16.47;8.50;;;;;;;17.84;88.69;100006.31;5093897;28;20324;-81
2023/09/02 03:22:35;;;;;;;18.48;9.45;;;;;;;17.89;88.53;100002.63;5093736;28;20249;-81
2023/09/02 03:25:00;;;;;;;17.67;8.77;;;;;;;17.90;88.30;100009.78;5092796;28;20028;-81
2023/09/02 03:27:25;;;;;;;21.63;10.23;;;;;;;17.89;88.23;100000.69;5092705;28;20526;-80
2023/09/02 03:29:51;;;;;;;17.45;8.07;;;;;;;17.89;88.42;99997.13;5092998;28;20049;-81
2023/09/02 03:32:16;;;;;;;14.10;8.30;;;;;;;17.87;88.76;100002.13;5095117;28;20105;-81
2023/09/02 03:34:42;;;;;;;15.38;8.25;;;;;;;17.89;88.36;99997.13;5093012;28;20031;-82
2023/09/02 03:37:07;;;;;;;17.50;8.90;;;;;;;17.89;88.32;99997.13;5092887;28;20028;-81
2023/09/02 03:39:33;;;;;;;13.52;6.88;;;;;;;17.85;88.49;100003.25;5092402;28;20488;-82
2023/09/02 03:41:59;;;;;;;15.10;8.02;;;;;;;17.84;88.66;100001.63;5092360;28;20039;-81
2023/09/02 03:44:25;;;;;;;17.45;8.63;;;;;;;17.83;88.80;100001.94;5089865;28;20039;-80
2023/09/02 03:46:51;;;;;;;13.73;8.40;;;;;;;17.88;88.56;100001.00;5093780;28;20400;-81
2023/09/02 03:49:16;;;;;;;16.63;8.90;;;;;;;17.86;88.54;100004.06;5092593;28;20793;-81
2023/09/02 03:51:42;;;;;;;14.03;8.27;;;;;;;17.91;88.10;100000.38;5092783;28;20383;-80
2023/09/02 03:54:08;;;;;;;17.40;10.45;;;;;;;17.90;88.14;99993.25;5096151;28;20687;-80
2023/09/02 03:56:36;;;;;;;16.08;7.88;;;;;;;17.95;88.02;99993.13;5093713;28;20046;-81
2023/09/02 03:59:02;;;;;;;14.82;8.27;;;;;;;17.94;88.15;99997.03;5091797;28;20450;-81
2023/09/02 04:01:28;;;;;;;14.27;8.07;;;;;;;17.97;87.68;99999.97;5093051;28;20565;-81
2023/09/02 04:03:53;;;;;;;13.90;7.77;;;;;;;17.99;87.72;100001.59;5091517;28;20081;-74
2023/09/02 04:06:18;;;;;;;14.80;7.35;;;;;;;18.00;87.46;100006.78;5089386;28;20280;-74
2023/09/02 04:08:44;;;;;;;14.85;7.68;;;;;;;18.00;87.55;100004.03;5089975;28;20020;-73
2023/09/02 04:11:09;;;;;;;13.48;6.88;;;;;;;17.96;87.43;100001.06;5089177;28;20435;-73
2023/09/02 04:13:34;;;;;;;16.00;7.27;;;;;;;17.97;87.70;100010.19;5089561;28;20030;-73
2023/09/02 04:16:03;;;;;;;16.33;8.27;;;;;;;18.01;87.43;100004.84;5089519;28;20249;-73
2023/09/02 04:18:30;;;;;;;13.23;5.97;;;;;;;18.00;87.45;100004.03;5089253;28;20027;-73
2023/09/02 04:20:55;;;;;;;14.32;6.53;;;;;;;18.00;87.23;100004.03;5089800;28;20024;-74
2023/09/02 04:23:21;;;;;;;15.32;7.22;;;;;;;18.00;87.41;100009.53;5096172;28;20035;-75
2023/09/02 04:25:49;;;;;;;13.23;7.45;;;;;;;18.02;87.20;100018.31;5096866;28;20749;-73
2023/09/02 04:28:14;;;;;;;12.40;6.65;;;;;;;17.99;87.18;100016.19;5095644;28;20032;-73
2023/09/02 04:30:40;;;;;;;13.55;6.95;;;;;;;17.99;87.21;100018.97;5095473;28;20606;-73
2023/09/02 04:33:05;;;;;;;15.85;7.70;;;;;;;17.92;87.59;100022.13;5095554;28;20020;-72
2023/09/02 04:35:42;;;;;;;13.95;6.15;;;;;;;17.84;87.43;100028.38;5095753;28;20500;-73
2023/09/02 04:38:08;;;;;;;13.98;7.50;;;;;;;17.83;88.04;100024.81;5094972;28;20300;-73
2023/09/02 04:40:37;;;;;;;14.90;7.57;;;;;;;17.83;88.02;100027.56;5095714;28;20047;-73
2023/09/02 04:43:03;;;;;;;12.32;6.63;;;;;;;17.82;88.14;100031.44;5092631;28;20027;-73
2023/09/02 04:45:34;;;;;;;11.40;7.15;;;;;;;17.85;88.14;100033.59;5088782;28;20154;-73
2023/09/02 04:48:00;;;;;;;14.27;6.30;;;;;;;17.89;87.99;100032.97;5092559;28;20054;-72
2023/09/02 04:50:25;;;;;;;15.18;7.28;;;;;;;17.86;87.80;100045.41;5093698;28;20025;-73
2023/09/02 04:52:51;;;;;;;14.98;6.80;;;;;;;17.84;88.04;100045.72;5095321;28;20032;-73
2023/09/02 04:55:16;;;;;;;18.77;7.43;;;;;;;17.88;87.75;100045.13;5095819;28;20028;-73
2023/09/02 04:57:42;;;;;;;15.50;6.80;;;;;;;17.89;87.84;100050.34;5096094;28;20437;-73
2023/09/02 05:00:09;;;;;;;13.30;6.80;;;;;;;17.95;87.59;100051.03;5095054;28;20036;-73
2023/09/02 05:02:34;;;;;;;13.13;7.18;;;;;;;17.92;87.63;100052.47;5095540;28;20024;-73
2023/09/02 05:04:59;;;;;;;11.93;6.30;;;;;;;17.94;87.58;100049.41;5096231;28;20072;-73
2023/09/02 05:07:25;;;;;;;14.18;6.18;;;;;;;17.93;87.82;100053.28;5095521;28;20963;-73
2023/09/02 05:09:51;;;;;;;11.50;5.37;;;;;;;17.94;87.54;100052.97;5096844;28;20445;-73
2023/09/02 05:12:16;;;;;;;11.77;6.60;;;;;;;17.94;87.46;100052.97;5095147;28;20058;-73
2023/09/02 05:14:41;;;;;;;17.45;6.65;;;;;;;17.94;87.45;100060.44;5101559;28;20032;-80
2023/09/02 05:17:06;;;;;;;12.83;7.07;;;;;;;17.93;87.60;100058.81;5095420;28;20035;-81
2023/09/02 05:19:32;;;;;;;11.63;5.75;;;;;;;17.93;87.36;100059.63;5090379;28;20275;-81
2023/09/02 05:21:57;;;;;;;12.20;6.47;;;;;;;17.89;87.63;100055.03;5097970;28;20027;-81
2023/09/02 05:24:23;;;;;;;13.77;7.88;;;;;;;17.84;87.73;100056.75;5096336;28;20248;-81
2023/09/02 05:26:48;;;;;;;13.63;5.32;;;;;;;17.79;88.23;100054.13;5097289;28;20024;-81
2023/09/02 05:29:14;;;;;;;14.13;6.43;;;;;;;17.78;88.67;100062.69;5098130;28;20488;-81
2023/09/02 05:31:39;;;;;;;13.73;5.70;;;;;;;17.77;88.53;100061.88;5098372;28;20036;-81
2023/09/02 05:34:05;;;;;;;11.27;5.88;;;;;;;17.78;88.52;100069.00;5094520;28;20136;-82
2023/09/02 05:36:30;;;;;;;10.00;5.00;;;;;;;17.78;88.88;100069.00;5095646;28;20091;-82
2023/09/02 05:38:55;;;;;;;10.97;6.27;;;;;;;17.81;88.78;100071.19;5095132;28;20024;-82
2023/09/02 05:41:20;;;;;;;9.77;5.22;;;;;;;17.84;88.89;100069.72;5095422;28;20280;-82
2023/09/02 05:43:46;;;;;;;12.67;6.53;;;;;;;17.94;88.57;100077.00;5094316;28;20055;-82
2023/09/02 05:46:11;;;;;;;12.43;5.17;;;;;;;18.01;88.02;100076.56;5095755;28;20251;-81
2023/09/02 05:48:36;;;;;;;10.50;5.30;;;;;;;18.05;87.94;100072.91;5095905;28;20329;-81
2023/09/02 05:51:01;;;;;;;19.40;4.90;;;;;;;18.10;87.38;100074.75;5095106;28;20283;-82
2023/09/02 05:53:27;;;;;;;10.43;4.38;;;;;;;18.09;87.83;100079.44;5095195;28;20273;-80
2023/09/02 05:55:55;;;;;;;8.88;4.43;;;;;;;18.12;87.59;100088.22;5094949;28;20016;-80
2023/09/02 05:58:24;;;;;;;8.02;3.92;;;;;;;18.10;87.65;100085.78;5094581;28;20024;-82
2023/09/02 06:00:49;;;;;;;8.25;3.42;;;;;;;18.15;87.85;100082.06;5095185;28;20028;-82
2023/09/02 06:03:15;;;;;;;9.35;4.28;;;;;;;18.21;87.65;100083.63;5097256;28;20081;-81
2023/09/02 06:05:40;;;;;;;8.82;4.05;;;;;;;18.25;87.34;100086.56;5094203;28;20028;-79
2023/09/02 06:08:05;;;;;;;8.23;4.07;;;;;;;18.24;87.18;100096.81;5094895;28;20511;-80
2023/09/02 06:10:31;;;;;;;12.07;4.70;;;;;;;18.27;86.86;100093.44;5094829;28;20118;-81
2023/09/02 06:12:56;;;;;;;9.73;3.73;;;;;;;18.30;86.77;100095.59;5097167;28;20386;-81
2023/09/02 06:15:21;;;;;;;9.17;4.77;;;;;;;18.32;86.73;100095.28;5094144;28;20273;-81
2023/09/02 06:17:46;;;;;;;6.43;3.20;;;;;;;18.33;87.19;100085.06;5094909;28;20339;-81
2023/09/02 06:20:15;;;;;;;7.55;3.95;;;;;;;18.34;86.67;100084.75;5102329;28;20167;-82
2023/09/02 06:22:40;;;;;;;7.45;3.60;;;;;;;18.37;86.87;100094.31;5094932;28;20023;-81
2023/09/02 06:25:06;;;;;;;6.15;3.38;;;;;;;18.39;86.78;100092.06;5093246;28;20024;-81
2023/09/02 06:27:31;;;;;;;5.55;2.38;;;;;;;18.41;86.68;100093.41;5094457;28;20024;-82
2023/09/02 06:29:57;;;;;;;6.32;3.20;;;;;;;18.43;86.54;100098.59;5094622;28;20397;-82
2023/09/02 06:32:22;;;;;;;5.30;2.57;;;;;;;18.47;86.75;100096.06;5093732;28;20044;-82
2023/09/02 06:34:47;;;;;;;6.65;2.80;;;;;;;18.50;86.48;100100.94;5095056;28;20325;-81
2023/09/02 06:37:13;;;;;;;8.85;3.13;;;;;;;18.52;86.49;100099.53;5094940;28;20024;-81
2023/09/02 06:39:38;;;;;;;6.68;3.42;;;;;;;18.55;86.49;100098.06;5091623;28;20115;-80
2023/09/02 06:42:04;;;;;;;6.57;3.00;;;;;;;18.55;86.67;100096.13;5092666;28;20039;-83
2023/09/02 06:44:29;;;;;;;6.00;2.92;;;;;;;18.59;86.66;100096.31;5093501;28;20245;-81
2023/09/02 06:46:54;;;;;;;6.13;2.70;;;;;;;18.60;86.66;100103.47;5093282;28;20039;-79
2023/09/02 06:49:20;;;;;;;7.70;2.63;;;;;;;18.61;86.81;100104.31;5092319;28;20272;-80
2023/09/02 06:51:45;;;;;;;4.03;2.20;;;;;;;18.63;86.59;100113.09;5089086;28;20269;-83
2023/09/02 06:54:10;;;;;;;12.33;2.80;;;;;;;18.64;87.10;100114.72;5086878;28;20707;-83
2023/09/02 06:56:36;;;;;;;6.97;2.13;;;;;;;18.66;86.42;100118.81;5088102;28;20252;-81
2023/09/02 06:59:02;;;;;;;6.80;2.67;;;;;;;18.70;86.73;100124.50;5090686;28;20359;-81
2023/09/02 07:01:27;;;;;;;7.20;3.22;;;;;;;18.72;86.70;100127.78;5084697;28;20256;-81
2023/09/02 07:03:55;;;;;;;4.73;2.23;;;;;;;18.75;86.36;100127.16;5084322;28;20032;-81
2023/09/02 07:06:20;;;;;;;7.72;2.45;;;;;;;18.77;86.27;100130.41;5084105;28;20369;-81
2023/09/02 07:08:46;;;;;;;5.13;2.42;;;;;;;18.75;86.34;100129.13;5084396;28;20043;-80
2023/09/02 07:11:13;;;;;;;5.47;3.15;;;;;;;18.75;86.41;100137.41;5084337;28;20093;-81
2023/09/02 07:13:39;;;;;;;6.63;2.75;;;;;;;18.79;86.45;100139.19;5084067;28;20040;-80
2023/09/02 07:16:06;;;;;;;4.97;2.28;;;;;;;18.83;86.12;100146.88;5083947;28;20059;-81
2023/09/02 07:18:32;;;;;;;5.97;2.80;;;;;;;18.86;85.82;100154.53;5084058;28;20028;-80
2023/09/02 07:21:01;;;;;;;5.40;3.10;;;;;;;18.90;85.95;100156.38;5084478;28;20055;-81
2023/09/02 07:23:28;;;;;;;4.68;2.03;;;;;;;18.94;85.78;100164.00;5083686;28;20437;-80
2023/09/02 07:25:55;;;;;;;7.15;2.70;;;;;;;18.95;85.83;100163.72;5084083;28;20074;-81
2023/09/02 07:28:20;;;;;;;7.22;2.60;;;;;;;18.95;85.87;100165.66;5084242;28;20067;-81
2023/09/02 07:30:46;;;;;;;5.50;2.93;;;;;;;18.96;86.07;100167.28;5084511;28;20371;-81
2023/09/02 07:33:11;;;;;;;6.80;2.55;;;;;;;18.95;86.15;100174.78;5083979;28;20284;-73
2023/09/02 07:35:38;;;;;;;5.53;2.47;;;;;;;18.97;85.70;100172.53;5082612;28;20126;-74
2023/09/02 07:38:06;;;;;;;4.75;2.63;;;;;;;19.00;85.92;100176.59;5083390;28;20043;-74
2023/09/02 07:40:32;;;;;;;6.35;2.65;;;;;;;19.05;85.78;100178.41;5082969;28;20051;-73
2023/09/02 07:43:00;;;;;;;5.13;2.05;;;;;;;19.06;85.51;100185.59;5083827;28;20028;-81
2023/09/02 07:45:26;;;;;;;4.70;2.20;;;;;;;19.06;85.66;100191.13;5083091;28;20531;-80
2023/09/02 07:47:51;;;;;;;5.45;2.92;;;;;;;19.09;85.74;100196.81;5083524;28;20036;-81
2023/09/02 07:50:16;;;;;;;6.23;2.40;;;;;;;19.10;85.73;100206.75;5083237;28;20119;-80
2023/09/02 07:52:42;;;;;;;4.90;2.90;;;;;;;19.13;85.52;100205.31;5083405;28;20264;-81
2023/09/02 07:55:07;;;;;;;5.50;2.83;;;;;;;19.17;85.80;100214.63;5082954;28;20848;-81
2023/09/02 07:57:32;;;;;;;4.57;2.30;;;;;;;19.19;85.37;100212.38;5083332;28;20248;-81
2023/09/02 07:59:59;;;;;;;5.93;3.40;;;;;;;19.21;85.29;100215.66;5083453;28;20576;-81
2023/09/02 08:02:24;;;;;;;5.22;2.20;;;;;;;19.27;85.45;100226.56;5082759;28;20050;-81
2023/09/02 08:04:50;;;;;;;7.55;2.80;;;;;;;19.28;85.41;100230.97;5082766;28;20040;-81
2023/09/02 08:07:15;;;;;;;7.20;2.50;;;;;;;19.31;85.39;100235.88;5082899;28;20048;-81
2023/09/02 08:09:40;;;;;;;4.47;2.20;;;;;;;19.32;85.52;100243.03;5083294;28;20459;-80
2023/09/02 08:12:07;;;;;;;4.60;2.70;;;;;;;19.35;85.74;100247.94;5083541;28;20443;-80
2023/09/02 08:14:32;;;;;;;3.55;2.03;;;;;;;19.32;85.72;100243.03;5082544;28;20696;-81
2023/09/02 08:16:57;;;;;;;4.65;2.17;;;;;;;19.33;85.84;100250.19;5083529;28;20332;-80
2023/09/02 08:19:23;;;;;;;3.80;1.93;;;;;;;19.41;85.80;100254.97;5083158;28;20035;-81
2023/09/02 08:21:48;;;;;;;5.53;2.38;;;;;;;19.42;85.67;100253.88;5083063;28;20609;-81
2023/09/02 08:24:13;;;;;;;5.33;1.80;;;;;;;19.44;85.51;100253.53;5083074;28;20055;-80
2023/09/02 08:26:40;;;;;;;5.18;2.53;;;;;;;19.44;85.28;100257.13;5083273;28;20257;-81
2023/09/02 08:29:06;;;;;;;6.18;2.55;;;;;;;19.45;85.75;100253.22;5083234;28;20054;-81
2023/09/02 08:31:31;;;;;;;4.68;2.72;;;;;;;19.49;85.12;100253.41;5083200;28;20481;-81
2023/09/02 08:33:57;;;;;;;5.43;2.55;;;;;;;19.53;85.48;100256.34;5082928;28;20051;-80
2023/09/02 08:36:22;;;;;;;3.70;1.80;;;;;;;19.57;84.96;100265.66;5083039;28;20032;-80
2023/09/02 08:38:48;;;;;;;3.95;1.80;;;;;;;19.61;85.19;100266.66;5083263;28;20024;-81
2023/09/02 08:41:35;;;;;;;3.95;2.00;;;;;;;19.65;84.45;100258.56;5083034;28;20532;-80
2023/09/02 08:44:02;;;;;;;4.97;1.45;;;;;;;19.69;84.94;100267.84;5083234;28;20039;-81
2023/09/02 08:46:30;;;;;;;6.55;2.03;;;;;;;19.69;84.75;100263.16;5083656;28;20457;-80
2023/09/02 08:48:56;;;;;;;3.88;1.60;;;;;;;19.70;84.67;100267.56;5082972;28;20042;-80
2023/09/02 08:51:24;;;;;;;2.92;1.50;;;;;;;19.77;84.67;100269.06;5083036;28;20059;-80
2023/09/02 08:53:53;;;;;;;3.85;2.15;;;;;;;19.76;83.85;100261.88;5082764;28;21189;-73
2023/09/02 08:56:18;;;;;;;3.63;1.85;;;;;;;19.79;84.43;100269.56;5082455;28;20036;-73
2023/09/02 08:58:45;;;;;;;3.28;1.65;;;;;;;19.84;84.23;100269.44;5082361;28;20393;-74
2023/09/02 09:01:16;;;;;;;4.57;1.83;;;;;;;19.87;83.75;100270.75;5082194;28;20039;-75
2023/09/02 09:03:48;;;;;;;2.65;1.48;;;;;;;19.87;83.95;100263.25;5082013;28;20032;-73
2023/09/02 09:06:13;;;;;;;3.72;1.88;;;;;;;19.90;84.44;100257.09;5082039;28;20138;-73
2023/09/02 09:08:41;;;;;;;4.07;1.73;;;;;;;19.93;84.07;100258.44;5083336;28;20464;-73
2023/09/02 09:11:07;;;;;;;3.35;1.73;;;;;;;19.95;84.06;100265.25;5086436;28;20036;-73
2023/09/02 09:13:34;;;;;;;2.75;1.35;;;;;;;19.99;84.06;100264.63;5085733;28;20036;-74
2023/09/02 09:16:01;;;;;;;3.28;1.80;;;;;;;20.00;83.41;100266.25;5086083;28;20032;-74
2023/09/02 09:18:27;;;;;;;4.55;1.83;;;;;;;20.02;83.82;100269.53;5085877;28;20028;-73
2023/09/02 09:20:53;;;;;;;7.20;2.50;;;;;;;20.07;83.83;100269.41;5084662;28;20546;-74
2023/09/02 09:23:19;;;;;;;3.15;1.98;;;;;;;20.11;83.88;100267.66;5086036;28;20265;-74
2023/09/02 09:25:49;;;;;;;1.95;1.20;;;;;;;20.14;83.99;100255.94;5085728;28;20051;-73
2023/09/02 09:28:14;;;;;;;5.13;1.83;;;;;;;20.16;83.86;100267.53;5085550;28;20519;-74
2023/09/02 09:30:40;;;;;;;3.35;1.60;;;;;;;20.22;83.70;100261.88;5084052;28;20063;-74
2023/09/02 09:33:05;;;;;;;5.05;2.15;;;;;;;20.27;83.94;100265.31;5085635;28;20040;-74
2023/09/02 09:35:34;;;;;;;4.50;1.95;;;;;;;20.30;83.37;100263.81;5085316;28;20062;-73
2023/09/02 09:38:00;;;;;;;2.90;1.85;;;;;;;20.37;83.54;100269.75;5085313;28;20501;-73
2023/09/02 09:40:30;;;;;;;10.18;2.03;;;;;;;20.41;83.18;100270.72;5085387;28;20431;-72
2023/09/02 09:42:55;;;;;;;4.53;1.67;;;;;;;20.44;83.08;100269.28;5085606;28;20114;-73
2023/09/02 09:45:21;;;;;;;2.53;1.38;;;;;;;20.49;83.54;100276.63;5085017;28;20138;-73
2023/09/02 09:47:46;;;;;;;3.78;1.85;;;;;;;20.51;83.26;100282.66;5085441;28;20125;-74
2023/09/02 09:50:14;;;;;;;3.67;1.57;;;;;;;20.52;83.02;100278.75;5084920;28;20080;-73
2023/09/02 09:52:39;;;;;;;3.75;2.20;;;;;;;20.53;82.74;100269.31;5084068;28;20277;-73
2023/09/02 09:55:05;;;;;;;4.60;2.25;;;;;;;20.57;82.63;100283.31;5084752;28;20428;-80
2023/09/02 09:57:30;;;;;;;4.50;2.15;;;;;;;20.54;82.69;100279.25;5085772;28;20031;-81
2023/09/02 09:59:56;;;;;;;3.23;1.57;;;;;;;20.54;83.26;100268.19;5085653;28;20042;-80
2023/09/02 10:02:22;;;;;;;4.05;1.67;;;;;;;20.58;83.13;100280.25;5085805;28;20185;-81
2023/09/02 10:04:57;;;;;;;3.95;1.52;;;;;;;20.61;82.88;100278.78;5085474;28;20652;-73
2023/09/02 10:07:25;;;;;;;4.28;1.90;;;;;;;20.61;82.96;100285.13;5085210;28;20056;-74
2023/09/02 10:09:53;;;;;;;2.97;1.45;;;;;;;20.62;83.26;100281.25;5085054;28;20056;-73
2023/09/02 10:12:20;;;;;;;3.13;1.55;;;;;;;20.69;83.19;100288.25;5084605;28;20044;-74
2023/09/02 10:14:47;;;;;;;2.70;1.73;;;;;;;20.75;83.05;100285.00;5084866;28;20038;-75
2023/09/02 10:17:13;;;;;;;3.55;1.67;;;;;;;20.85;83.15;100294.97;5085034;28;20032;-73
2023/09/02 10:19:40;;;;;;;3.47;1.67;;;;;;;20.90;82.58;100285.69;5084273;28;20036;-73
2023/09/02 10:22:06;;;;;;;4.00;1.75;;;;;;;20.91;82.46;100292.06;5084707;28;20039;-73
2023/09/02 10:24:34;;;;;;;3.67;1.90;;;;;;;20.95;82.91;100284.75;5084140;28;20032;-73
2023/09/02 10:27:10;;;;;;;4.20;1.70;;;;;;;20.99;82.58;100285.75;5084599;28;20031;-73
2023/09/02 10:29:43;;;;;;;3.80;1.95;;;;;;;21.00;82.45;100295.69;5085449;28;20075;-73
2023/09/02 10:32:15;;;;;;;3.03;2.15;;;;;;;20.98;82.31;100289.66;5084596;28;20036;-72
2023/09/02 10:35:07;;;;;;;2.80;1.58;;;;;;;20.99;82.59;100294.06;5084645;28;20501;-73
2023/09/02 10:37:48;;;;;;;2.78;1.60;;;;;;;20.99;82.18;100300.41;5084717;28;20036;-74
2023/09/02 10:40:20;;;;;;;3.47;1.60;;;;;;;21.06;82.23;100304.66;5084347;28;20115;-73
2023/09/02 10:42:47;;;;;;;7.05;1.95;;;;;;;21.11;82.25;100296.22;5084398;28;20039;-73
2023/09/02 10:45:13;;;;;;;3.10;1.48;;;;;;;21.21;82.17;100311.72;5083525;28;20040;-74
2023/09/02 10:47:39;;;;;;;4.10;1.80;;;;;;;21.28;81.44;100306.50;5084139;28;20486;-73
2023/09/02 10:50:06;;;;;;;3.85;1.70;;;;;;;21.32;82.21;100314.97;5084281;28;20039;-73
2023/09/02 10:52:31;;;;;;;3.60;2.17;;;;;;;21.33;81.23;100308.28;5084740;28;20136;-75
2023/09/02 10:55:08;;;;;;;2.75;1.45;;;;;;;21.33;81.18;100309.13;5083827;28;20138;-72
2023/09/02 10:57:57;;;;;;;2.55;1.75;;;;;;;21.43;81.42;100309.94;5084356;28;20322;-73
2023/09/02 11:00:24;;;;;;;4.22;1.52;;;;;;;21.46;80.99;100306.50;5083968;28;20075;-73
2023/09/02 11:02:54;;;;;;;2.40;1.38;;;;;;;21.48;80.88;100308.97;5083866;28;20435;-80
2023/09/02 11:05:21;;;;;;;4.15;1.50;;;;;;;21.49;80.53;100305.84;5083636;28;21231;-80
2023/09/02 11:07:47;;;;;;;3.03;1.33;;;;;;;21.49;80.52;100311.41;5083442;28;20036;-81
2023/09/02 11:10:13;;;;;;;3.30;1.27;;;;;;;21.49;80.64;100311.41;5084167;28;20039;-80
2023/09/02 11:12:57;;;;;;;3.92;1.63;;;;;;;21.46;80.51;100318.41;5084507;28;20487;-80
2023/09/02 11:15:23;;;;;;;5.18;1.70;;;;;;;21.41;80.70;100315.81;5083772;28;20139;-80
2023/09/02 11:17:49;;;;;;;4.68;2.05;;;;;;;21.39;80.47;100311.72;5084092;28;20266;-80
2023/09/02 11:20:19;;;;;;;2.78;1.20;;;;;;;21.41;80.78;100314.97;5084195;28;20036;-81